Observations for LORIENT LANN BIHOUE, France (LFRH)

LFRH 171900Z AUTO 27009KT 240V300 CAVOK 19/13 Q1019 NOSIG   
LFRH 171830Z AUTO 27012KT CAVOK 20/12 Q1019 NOSIG   
LFRH 171800Z AUTO 26012KT CAVOK 20/12 Q1019 NOSIG   
LFRH 171730Z AUTO 26011KT 240V300 CAVOK 21/13 Q1019 NOSIG   
LFRH 171700Z AUTO 26012KT CAVOK 21/12 Q1019 NOSIG   
LFRH 171630Z AUTO 25013KT 220V280 CAVOK 21/12 Q1019 NOSIG   
LFRH 171600Z AUTO 25013KT 210V280 CAVOK 22/12 Q1019 NOSIG   
LFRH 171530Z AUTO 26013KT CAVOK 22/11 Q1019 NOSIG   
LFRH 171500Z AUTO 25012KT 210V280 CAVOK 22/10 Q1019 NOSIG   
LFRH 171430Z AUTO 24012KT 210V270 CAVOK 22/10 Q1019 NOSIG   
LFRH 171400Z AUTO 26011KT 220V280 CAVOK 22/09 Q1019 NOSIG   
LFRH 171330Z AUTO 26013KT CAVOK 22/10 Q1019 NOSIG   
LFRH 171300Z AUTO 26013KT CAVOK 22/11 Q1019 NOSIG   
LFRH 171230Z AUTO 25012KT CAVOK 22/11 Q1019 NOSIG   
LFRH 171200Z AUTO 26011KT CAVOK 22/12 Q1020 NOSIG   
LFRH 171130Z AUTO 26011KT CAVOK 22/14 Q1020 NOSIG   
LFRH 171100Z AUTO 27012KT 240V300 9999 FEW024 BKN066 21/13 Q1020 NOSIG  
LFRH 171030Z AUTO 25010KT CAVOK 21/14 Q1020 NOSIG   
LFRH 171000Z AUTO 25009KT 220V280 CAVOK 21/14 Q1020 NOSIG   
LFRH 170930Z AUTO 25009KT 9999 FEW022 OVC060 20/14 Q1020 NOSIG  
LFRH 170900Z AUTO 26006KT 220V310 9999 SCT024 SCT036 BKN060 19/14 Q1020 NOSIG   
LFRH 170830Z AUTO 32006KT 280V040 9999 FEW021 OVC060 19/15 Q1019 NOSIG  
LFRH 170800Z AUTO 30007KT 9999 FEW020 BKN060 19/14 Q1019 NOSIG  
LFRH 170730Z AUTO 29005KT 260V320 CAVOK 18/15 Q1019 NOSIG   
LFRH 170700Z AUTO 30004KT CAVOK 17/15 Q1019 NOSIG   
LFRH 170630Z AUTO 31003KT 280V350 CAVOK 16/15 Q1019 NOSIG   
LFRH 170600Z AUTO VRB03KT CAVOK 16/15 Q1019 NOSIG   
LFRH 170530Z AUTO VRB02KT CAVOK 14/14 Q1019 NOSIG   
LFRH 170500Z AUTO 13003KT CAVOK 13/13 Q1019 NOSIG   
LFRH 170430Z AUTO 11003KT CAVOK 13/13 Q1019 NOSIG   
LFRH 170400Z AUTO 30003KT CAVOK 13/13 Q1019 NOSIG   
LFRH 170330Z AUTO VRB02KT CAVOK 14/14 Q1018 NOSIG   
LFRH 170300Z AUTO 31003KT CAVOK 14/13 Q1019 NOSIG   
LFRH 170230Z AUTO 31003KT CAVOK 15/14 Q1019 NOSIG   
LFRH 170200Z AUTO 28004KT CAVOK 15/14 Q1019 NOSIG   
LFRH 170130Z AUTO 30003KT CAVOK 16/15 Q1019 NOSIG   
LFRH 170100Z AUTO 30003KT CAVOK 16/15 Q1019 NOSIG   
LFRH 170030Z AUTO 29004KT CAVOK 16/15 Q1019 NOSIG   
LFRH 170000Z AUTO 29005KT 9999 FEW048 OVC060 16/15 Q1019 NOSIG  
LFRH 162330Z AUTO 30004KT 9999 FEW046 BKN058 17/15 Q1019 NOSIG  
LFRH 162300Z AUTO 30003KT 9999 FEW038 BKN044 OVC058 17/15 Q1019 NOSIG   
LFRH 162230Z AUTO 33003KT 290V360 9999 FEW029 BKN037 BKN043 17/15 Q1019 NOSIG   
LFRH 162200Z AUTO 35007KT 9999 SCT016 BKN024 OVC031 17/15 Q1018 BECMG 28010KT   
LFRH 162130Z AUTO 33008KT 9999 SCT013 BKN025 OVC031 18/16 Q1018 NOSIG   
LFRH 162100Z AUTO 32007KT 9999 FEW019 BKN027 BKN054 19/16 Q1018 NOSIG   
LFRH 162030Z AUTO 30007KT 270V340 9999 OVC026 20/17 Q1017 NOSIG 
LFRH 162000Z AUTO 25008KT 220V300 9999 BKN027 BKN043 BKN060 19/17 Q1017 NOSIG   
LFRH 161930Z AUTO 24007KT 210V280 9999 FEW032 OVC058 20/17 Q1017 NOSIG  
LFRH 161900Z AUTO 24008KT 210V290 9999 FEW043 BKN056 20/17 Q1017 NOSIG  
LFRH 161830Z AUTO 26009KT CAVOK 21/17 Q1017 NOSIG